createdAt,value
2018-09-27T00:00:58.436Z,14.60
2018-09-27T00:03:33.894Z,6.33
2018-09-27T00:06:08.732Z,3.90
2018-09-27T00:08:43.561Z,3.77
2018-09-27T00:11:19.053Z,4.57
2018-09-27T00:13:54.554Z,3.13
2018-09-27T00:16:29.389Z,3.30
2018-09-27T00:19:04.252Z,3.70
2018-09-27T00:21:39.742Z,3.50
2018-09-27T00:24:14.621Z,3.30
2018-09-27T00:26:50.375Z,3.53
2018-09-27T00:29:25.932Z,3.67
2018-09-27T00:32:01.024Z,3.50
2018-09-27T00:34:35.823Z,3.90
2018-09-27T00:37:11.046Z,3.73
2018-09-27T00:39:46.131Z,3.63
2018-09-27T00:42:21.632Z,4.10
2018-09-27T00:44:56.526Z,3.63
2018-09-27T00:47:31.614Z,4.17
2018-09-27T00:50:07.231Z,4.20
2018-09-27T00:52:41.871Z,4.40
2018-09-27T00:55:17.365Z,4.67
2018-09-27T00:57:52.081Z,3.90
2018-09-27T01:00:27.473Z,4.63
2018-09-27T01:03:02.213Z,4.27
2018-09-27T01:05:37.736Z,4.87
2018-09-27T01:08:12.490Z,4.10
2018-09-27T01:10:47.251Z,3.63
2018-09-27T01:13:22.213Z,3.77
2018-09-27T01:15:57.093Z,3.70
2018-09-27T01:18:32.492Z,4.93
2018-09-27T01:21:07.277Z,4.10
2018-09-27T01:23:42.046Z,4.00
2018-09-27T01:26:16.788Z,3.80
2018-09-27T01:28:51.503Z,5.53
2018-09-27T01:31:26.271Z,6.13
2018-09-27T01:34:01.070Z,4.20
2018-09-27T01:36:35.887Z,4.30
2018-09-27T01:39:10.809Z,3.33
2018-09-27T01:41:45.636Z,4.10
2018-09-27T01:44:20.372Z,4.10
2018-09-27T01:46:55.168Z,3.87
2018-09-27T01:49:30.227Z,4.37
2018-09-27T01:52:05.202Z,3.80
2018-09-27T01:54:40.006Z,4.23
2018-09-27T01:57:14.700Z,4.40
2018-09-27T01:59:49.481Z,4.07
2018-09-27T02:02:24.389Z,3.33
2018-09-27T02:04:59.206Z,3.40
2018-09-27T02:07:33.862Z,3.63
2018-09-27T02:10:08.720Z,3.60
2018-09-27T02:12:43.585Z,3.50
2018-09-27T02:15:18.510Z,3.20
2018-09-27T02:17:53.294Z,4.17
2018-09-27T02:20:28.010Z,3.77
2018-09-27T02:23:02.893Z,4.10
2018-09-27T02:25:37.812Z,4.80
2018-09-27T02:28:12.809Z,4.80
2018-09-27T02:30:48.117Z,3.63
2018-09-27T02:33:22.828Z,3.63
2018-09-27T02:35:57.658Z,3.80
2018-09-27T02:38:32.446Z,4.10
2018-09-27T02:41:07.814Z,4.13
2018-09-27T02:43:43.355Z,4.37
2018-09-27T02:46:17.989Z,4.07
2018-09-27T02:48:52.649Z,4.10
2018-09-27T02:51:27.582Z,3.70
2018-09-27T02:54:02.411Z,3.73
2018-09-27T02:56:37.130Z,3.83
2018-09-27T02:59:11.937Z,20.37
2018-09-27T03:01:46.897Z,4.50
2018-09-27T03:04:21.740Z,3.33
2018-09-27T03:06:56.469Z,4.17
2018-09-27T03:09:31.260Z,4.33
2018-09-27T03:12:06.383Z,4.30
2018-09-27T03:14:41.117Z,3.87
2018-09-27T03:17:15.963Z,3.90
2018-09-27T03:19:50.796Z,4.30
2018-09-27T03:22:25.549Z,4.60
2018-09-27T03:25:01.196Z,3.73
2018-09-27T03:27:36.323Z,3.97
2018-09-27T03:30:11.150Z,5.30
2018-09-27T03:32:45.870Z,4.67
2018-09-27T03:35:20.914Z,5.57
2018-09-27T03:37:55.582Z,4.90
2018-09-27T03:40:30.690Z,4.77
2018-09-27T03:43:05.865Z,4.27
2018-09-27T03:45:40.808Z,4.57
2018-09-27T03:48:16.315Z,4.87
2018-09-27T03:50:51.664Z,5.07
2018-09-27T03:53:26.323Z,6.30
2018-09-27T03:56:01.815Z,6.27
2018-09-27T03:58:36.573Z,5.20
2018-09-27T04:01:11.802Z,4.90
2018-09-27T04:03:46.710Z,6.07
2018-09-27T04:06:22.293Z,5.03
2018-09-27T04:08:57.581Z,6.20
2018-09-27T04:11:32.243Z,4.80
2018-09-27T04:14:07.250Z,5.17
2018-09-27T04:16:41.926Z,4.73
2018-09-27T04:19:16.780Z,4.37
2018-09-27T04:21:51.574Z,4.23
2018-09-27T04:24:27.363Z,4.27
2018-09-27T04:27:02.386Z,4.90
2018-09-27T04:29:37.133Z,6.93
2018-09-27T04:32:11.947Z,9.83
2018-09-27T04:34:46.639Z,4.60
2018-09-27T04:37:22.209Z,4.37
2018-09-27T04:39:56.826Z,5.80
2018-09-27T04:42:31.729Z,8.87
2018-09-27T04:45:06.434Z,13.93
2018-09-27T04:47:41.789Z,20.73
2018-09-27T04:50:16.499Z,11.47
2018-09-27T04:52:51.402Z,9.07
2018-09-27T04:55:26.150Z,8.60
2018-09-27T04:58:00.934Z,8.77
2018-09-27T05:00:35.719Z,10.20
2018-09-27T05:03:10.356Z,7.07
2018-09-27T05:05:45.281Z,7.87
2018-09-27T05:08:19.977Z,5.33
2018-09-27T05:10:54.658Z,6.03
2018-09-27T05:13:29.891Z,4.27
2018-09-27T05:16:05.483Z,4.70
2018-09-27T05:18:41.173Z,5.40
2018-09-27T05:21:15.926Z,5.30
2018-09-27T05:23:50.671Z,5.43
2018-09-27T05:26:26.102Z,4.10
2018-09-27T05:29:01.626Z,5.97
2018-09-27T05:31:36.274Z,8.40
2018-09-27T05:34:10.977Z,8.40
2018-09-27T05:36:45.897Z,7.23
2018-09-27T05:39:21.498Z,8.83
2018-09-27T05:41:56.365Z,8.27
2018-09-27T05:44:31.097Z,7.40
2018-09-27T05:47:05.926Z,9.60
2018-09-27T05:49:40.603Z,9.73
2018-09-27T05:52:15.316Z,6.30
2018-09-27T05:54:50.164Z,10.47
2018-09-27T05:57:24.930Z,8.53
2018-09-27T05:59:59.915Z,13.00
2018-09-27T06:02:34.867Z,21.80
2018-09-27T06:05:09.592Z,19.10
2018-09-27T06:07:44.380Z,19.93
2018-09-27T06:10:19.149Z,12.57
2018-09-27T06:12:54.658Z,18.00
2018-09-27T06:15:29.474Z,11.90
2018-09-27T06:18:04.485Z,8.90
2018-09-27T06:20:39.116Z,6.10
2018-09-27T06:23:13.936Z,7.23
2018-09-27T06:25:49.829Z,6.53
2018-09-27T06:28:24.474Z,8.60
2018-09-27T06:30:59.237Z,5.43
2018-09-27T06:33:34.024Z,7.50
2018-09-27T06:36:08.963Z,7.00
2018-09-27T06:38:45.000Z,6.03
2018-09-27T06:41:19.929Z,9.37
2018-09-27T06:43:54.802Z,6.07
2018-09-27T06:46:29.701Z,6.97
2018-09-27T06:49:05.246Z,6.73
2018-09-27T06:51:40.221Z,5.77
2018-09-27T06:54:15.157Z,6.17
2018-09-27T06:56:49.836Z,12.00
2018-09-27T06:59:24.663Z,9.30
2018-09-27T07:02:00.714Z,7.00
2018-09-27T07:04:35.394Z,6.87
2018-09-27T07:07:10.031Z,7.07
2018-09-27T07:09:44.958Z,6.03
2018-09-27T07:12:19.733Z,7.77
2018-09-27T07:14:54.629Z,6.37
2018-09-27T07:17:29.453Z,6.73
2018-09-27T07:20:04.590Z,7.27
2018-09-27T07:22:40.256Z,4.97
2018-09-27T07:25:15.090Z,5.20
2018-09-27T07:27:49.959Z,7.17
2018-09-27T07:30:24.607Z,4.17
2018-09-27T07:32:59.417Z,5.73
2018-09-27T07:35:34.349Z,7.13
2018-09-27T07:38:09.817Z,5.70
2018-09-27T07:40:45.142Z,6.63
2018-09-27T07:43:19.785Z,6.30
2018-09-27T07:45:55.196Z,7.43
2018-09-27T07:48:30.405Z,8.77
2018-09-27T07:51:05.278Z,8.67
2018-09-27T07:53:40.431Z,6.67
2018-09-27T07:56:15.302Z,6.03
2018-09-27T07:58:49.882Z,6.30
2018-09-27T08:01:25.265Z,6.30
2018-09-27T08:04:00.818Z,6.30
2018-09-27T08:06:35.917Z,5.30
2018-09-27T08:09:10.734Z,5.43
2018-09-27T08:11:46.540Z,5.53
2018-09-27T08:14:21.837Z,5.15
2018-09-27T08:16:58.128Z,7.35
2018-09-27T08:19:33.674Z,6.67
2018-09-27T08:22:09.661Z,7.20
2018-09-27T08:24:45.501Z,4.85
2018-09-27T08:27:21.051Z,5.12
2018-09-27T08:29:56.281Z,4.58
2018-09-27T08:32:32.052Z,4.60
2018-09-27T08:35:07.829Z,4.45
2018-09-27T08:37:43.329Z,5.80
2018-09-27T08:40:19.026Z,4.65
2018-09-27T08:42:54.354Z,5.50
2018-09-27T08:45:29.896Z,3.90
2018-09-27T08:48:05.550Z,3.83
2018-09-27T08:50:41.137Z,3.75
2018-09-27T08:53:16.318Z,3.90
2018-09-27T08:55:51.976Z,3.67
2018-09-27T08:58:28.923Z,3.50
2018-09-27T09:01:04.366Z,3.60
2018-09-27T09:03:39.953Z,3.67
2018-09-27T09:06:15.319Z,6.42
2018-09-27T09:08:50.608Z,4.22
2018-09-27T09:11:26.637Z,5.47
2018-09-27T09:14:03.489Z,4.37
2018-09-27T09:16:38.894Z,3.55
2018-09-27T09:19:14.277Z,5.42
2018-09-27T09:21:49.784Z,4.67
2018-09-27T09:24:25.224Z,5.37
2018-09-27T09:27:00.966Z,5.92
2018-09-27T09:29:36.717Z,4.55
2018-09-27T09:32:12.910Z,6.37
2018-09-27T09:34:48.511Z,4.40
2018-09-27T09:37:23.855Z,5.13
2018-09-27T09:39:59.393Z,4.27
2018-09-27T09:42:34.594Z,3.60
2018-09-27T09:45:10.115Z,3.90
2018-09-27T09:47:46.641Z,3.23
2018-09-27T09:50:22.194Z,3.23
2018-09-27T09:52:57.852Z,2.97
2018-09-27T09:55:32.753Z,3.50
2018-09-27T09:58:08.101Z,3.00
2018-09-27T10:00:43.374Z,3.27
2018-09-27T10:03:18.584Z,5.10
2018-09-27T10:05:53.949Z,4.77
2018-09-27T10:08:29.171Z,3.77
2018-09-27T10:11:04.513Z,3.17
2018-09-27T10:13:40.271Z,4.20
2018-09-27T10:16:15.595Z,3.77
2018-09-27T10:18:50.522Z,3.60
2018-09-27T10:21:25.553Z,3.27
2018-09-27T10:24:00.685Z,3.20
2018-09-27T10:26:35.936Z,3.20
2018-09-27T10:29:10.993Z,2.80
2018-09-27T10:31:46.210Z,4.53
2018-09-27T10:34:21.335Z,4.57
2018-09-27T10:36:56.583Z,3.47
2018-09-27T10:39:32.269Z,3.00
2018-09-27T10:42:07.206Z,3.00
2018-09-27T10:44:42.246Z,2.53
2018-09-27T10:47:17.338Z,2.83
2018-09-27T10:49:52.292Z,3.07
2018-09-27T10:52:27.401Z,3.27
2018-09-27T10:55:02.596Z,3.03
2018-09-27T10:57:37.882Z,3.93
2018-09-27T11:00:21.672Z,2.60
2018-09-27T11:02:56.713Z,2.77
2018-09-27T11:05:31.917Z,2.70
2018-09-27T11:08:07.893Z,2.60
2018-09-27T11:10:43.149Z,3.00
2018-09-27T11:13:18.267Z,3.10
2018-09-27T11:15:53.491Z,2.60
2018-09-27T11:18:28.435Z,3.47
2018-09-27T11:21:03.874Z,3.63
2018-09-27T11:23:39.008Z,3.70
2018-09-27T11:26:13.967Z,3.33
2018-09-27T11:28:54.489Z,2.90
2018-09-27T11:31:34.738Z,3.17
2018-09-27T11:34:09.753Z,4.57
2018-09-27T11:36:44.913Z,2.90
2018-09-27T11:39:20.134Z,3.13
2018-09-27T11:41:55.317Z,2.30
2018-09-27T11:44:30.397Z,3.27
2018-09-27T11:47:06.086Z,2.20
2018-09-27T11:49:41.584Z,2.30
2018-09-27T11:52:17.431Z,2.10
2018-09-27T11:54:52.435Z,2.63
2018-09-27T11:57:27.476Z,2.30
2018-09-27T12:00:02.515Z,2.47
2018-09-27T12:02:37.951Z,2.40
2018-09-27T12:05:12.975Z,2.10
2018-09-27T12:07:48.053Z,2.07
2018-09-27T12:10:23.153Z,2.10
2018-09-27T12:12:58.788Z,2.50
2018-09-27T12:15:34.637Z,2.13
2018-09-27T12:18:09.680Z,2.17
2018-09-27T12:20:45.496Z,2.63
2018-09-27T12:23:20.550Z,2.80
2018-09-27T12:25:55.718Z,2.00
2018-09-27T12:28:31.786Z,2.17
2018-09-27T12:31:07.909Z,2.50
2018-09-27T12:33:43.696Z,2.60
2018-09-27T12:36:18.702Z,3.87
2018-09-27T12:38:53.987Z,2.23
2018-09-27T12:41:29.247Z,1.93
2018-09-27T12:44:04.594Z,1.80
2018-09-27T12:46:39.845Z,2.37
2018-09-27T12:49:15.606Z,2.47
2018-09-27T12:51:50.960Z,2.00
2018-09-27T12:54:26.223Z,2.37
2018-09-27T12:57:01.333Z,1.83
2018-09-27T12:59:36.461Z,1.77
2018-09-27T13:02:12.055Z,2.00
2018-09-27T13:04:47.243Z,2.30
2018-09-27T13:07:22.360Z,2.07
2018-09-27T13:09:57.803Z,1.93
2018-09-27T13:12:33.188Z,2.50
2018-09-27T13:15:09.868Z,2.00
2018-09-27T13:17:45.095Z,2.10
2018-09-27T13:20:20.422Z,2.00
2018-09-27T13:22:55.693Z,2.50
2018-09-27T13:25:31.100Z,2.00
2018-09-27T13:28:06.476Z,1.87
2018-09-27T13:30:42.233Z,2.07
2018-09-27T13:33:17.367Z,2.07
2018-09-27T13:35:52.447Z,1.77
2018-09-27T13:38:28.443Z,2.13
2018-09-27T13:41:03.634Z,2.47
2018-09-27T13:43:38.761Z,1.93
2018-09-27T13:46:14.024Z,2.47
2018-09-27T13:48:49.546Z,2.00
2018-09-27T13:51:24.905Z,2.00
2018-09-27T13:54:00.657Z,2.70
2018-09-27T13:56:35.769Z,2.77
2018-09-27T13:59:10.761Z,2.17
2018-09-27T14:01:46.312Z,3.23
2018-09-27T14:04:21.467Z,1.97
2018-09-27T14:06:56.789Z,2.47
2018-09-27T14:09:33.242Z,1.80
2018-09-27T14:12:08.210Z,1.87
2018-09-27T14:14:43.441Z,2.93
2018-09-27T14:17:18.720Z,2.63
2018-09-27T14:19:53.913Z,1.70
2018-09-27T14:22:29.128Z,1.90
2018-09-27T14:25:04.132Z,1.90
2018-09-27T14:27:39.202Z,2.00
2018-09-27T14:30:14.368Z,3.77
2018-09-27T14:32:49.565Z,10.88
2018-09-27T14:35:24.737Z,1.93
2018-09-27T14:37:59.943Z,1.83
2018-09-27T14:40:34.977Z,1.83
2018-09-27T14:43:10.339Z,1.77
2018-09-27T14:45:45.681Z,1.70
2018-09-27T14:48:21.033Z,1.80
2018-09-27T14:50:56.513Z,1.77
2018-09-27T14:53:31.634Z,2.13
2018-09-27T14:56:07.027Z,1.60
2018-09-27T14:58:43.071Z,1.90
2018-09-27T15:01:18.488Z,1.80
2018-09-27T15:03:53.674Z,1.70
2018-09-27T15:06:28.784Z,1.90
2018-09-27T15:09:04.766Z,2.17
2018-09-27T15:11:40.021Z,2.27
2018-09-27T15:14:14.992Z,1.80
2018-09-27T15:16:50.926Z,2.90
2018-09-27T15:19:26.122Z,2.00
2018-09-27T15:22:01.169Z,1.70
2018-09-27T15:24:36.838Z,1.93
2018-09-27T15:27:12.059Z,1.90
2018-09-27T15:29:47.097Z,2.33
2018-09-27T15:32:22.331Z,2.03
2018-09-27T15:34:57.324Z,1.70
2018-09-27T15:37:32.478Z,1.70
2018-09-27T15:40:07.845Z,2.20
2018-09-27T15:42:43.424Z,1.80
2018-09-27T15:45:18.459Z,1.60
2018-09-27T15:47:53.686Z,2.60
2018-09-27T15:50:28.824Z,1.83
2018-09-27T15:53:04.146Z,1.70
2018-09-27T15:55:39.301Z,2.50
2018-09-27T15:58:15.135Z,1.63
2018-09-27T16:00:51.009Z,1.83
2018-09-27T16:03:26.282Z,1.83
2018-09-27T16:06:01.679Z,1.70
2018-09-27T16:08:36.833Z,1.80
2018-09-27T16:11:12.295Z,1.82
2018-09-27T16:13:47.656Z,1.60
2018-09-27T16:16:23.482Z,1.92
2018-09-27T16:18:58.807Z,2.10
2018-09-27T16:21:34.023Z,1.90
2018-09-27T16:24:09.154Z,2.10
2018-09-27T16:26:44.348Z,1.70
2018-09-27T16:29:19.374Z,1.60
2018-09-27T16:31:54.760Z,1.77
2018-09-27T16:34:30.665Z,1.87
2018-09-27T16:37:06.882Z,2.40
2018-09-27T16:39:42.083Z,2.07
2018-09-27T16:42:17.673Z,1.63
2018-09-27T16:44:53.018Z,3.27
2018-09-27T16:47:28.702Z,2.37
2018-09-27T16:50:04.913Z,3.05
2018-09-27T16:52:41.358Z,3.05
2018-09-27T16:55:16.662Z,2.58
2018-09-27T16:57:52.368Z,3.27
2018-09-27T17:00:28.137Z,2.40
2018-09-27T17:03:03.438Z,3.37
2018-09-27T17:05:38.916Z,2.45
2018-09-27T17:08:14.625Z,1.90
2018-09-27T17:10:50.611Z,3.02
2018-09-27T17:13:25.853Z,2.62
2018-09-27T17:16:01.363Z,3.77
2018-09-27T17:18:36.873Z,2.95
2018-09-27T17:21:12.557Z,2.42
2018-09-27T17:23:48.003Z,3.25
2018-09-27T17:26:23.503Z,2.92
2018-09-27T17:28:58.993Z,3.15
2018-09-27T17:31:34.564Z,2.33
2018-09-27T17:34:10.204Z,2.45
2018-09-27T17:36:45.637Z,3.50
2018-09-27T17:39:21.206Z,4.37
2018-09-27T17:41:56.506Z,4.40
2018-09-27T17:44:32.370Z,4.47
2018-09-27T17:47:07.729Z,3.47
2018-09-27T17:49:43.142Z,3.90
2018-09-27T17:52:18.816Z,2.45
2018-09-27T17:54:54.848Z,3.17
2018-09-27T17:57:30.321Z,3.27
2018-09-27T18:00:06.250Z,4.15
2018-09-27T18:02:41.741Z,4.08
2018-09-27T18:05:19.451Z,4.55
2018-09-27T18:07:52.442Z,3.47
2018-09-27T18:10:27.778Z,3.58
2018-09-27T18:13:03.375Z,2.10
2018-09-27T18:15:38.821Z,2.62
2018-09-27T18:18:14.881Z,2.60
2018-09-27T18:20:50.658Z,2.40
2018-09-27T18:23:27.009Z,2.83
2018-09-27T18:26:02.975Z,3.67
2018-09-27T18:28:38.521Z,4.03
2018-09-27T18:31:14.207Z,4.80
2018-09-27T18:33:49.806Z,2.50
2018-09-27T18:36:25.157Z,2.47
2018-09-27T18:39:00.534Z,3.10
2018-09-27T18:41:35.917Z,3.08
2018-09-27T18:44:11.378Z,2.20
2018-09-27T18:46:46.795Z,2.25
2018-09-27T18:49:24.188Z,2.40
2018-09-27T18:51:59.570Z,2.50
2018-09-27T18:54:35.024Z,2.40
2018-09-27T18:57:23.636Z,2.40
2018-09-27T19:00:00.872Z,2.23
2018-09-27T19:02:42.667Z,2.30
2018-09-27T19:05:36.182Z,3.17
2018-09-27T19:08:12.040Z,2.10
2018-09-27T19:10:47.641Z,2.57
2018-09-27T19:13:38.722Z,2.63
2018-09-27T19:16:14.312Z,2.10
2018-09-27T19:18:50.662Z,2.63
2018-09-27T19:21:25.700Z,3.00
2018-09-27T19:24:00.678Z,2.73
2018-09-27T19:26:35.832Z,2.77
2018-09-27T19:29:10.895Z,2.60
2018-09-27T19:31:46.368Z,2.90
2018-09-27T19:34:21.154Z,2.53
2018-09-27T19:36:56.212Z,3.13
2018-09-27T19:39:30.905Z,2.60
2018-09-27T19:42:05.866Z,2.73
2018-09-27T19:44:40.723Z,2.60
2018-09-27T19:47:15.696Z,5.73
2018-09-27T19:49:50.560Z,3.07
2018-09-27T19:52:25.517Z,3.20
2018-09-27T19:55:00.681Z,3.00
2018-09-27T19:57:35.547Z,2.60
2018-09-27T20:00:10.767Z,3.10
2018-09-27T20:02:45.556Z,3.47
2018-09-27T20:05:20.613Z,2.73
2018-09-27T20:07:55.399Z,3.23
2018-09-27T20:10:31.715Z,3.10
2018-09-27T20:13:07.747Z,3.27
2018-09-27T20:15:42.835Z,3.10
2018-09-27T20:18:18.163Z,2.83
2018-09-27T20:20:53.031Z,2.80
2018-09-27T20:23:27.787Z,3.23
2018-09-27T20:26:02.565Z,2.90
2018-09-27T20:28:38.097Z,3.53
2018-09-27T20:31:14.119Z,3.33
2018-09-27T20:33:48.890Z,3.30
2018-09-27T20:36:24.174Z,3.33
2018-09-27T20:38:59.598Z,3.50
2018-09-27T20:41:34.430Z,4.17
2018-09-27T20:44:09.957Z,3.30
2018-09-27T20:46:44.997Z,4.40
2018-09-27T20:49:19.926Z,3.70
2018-09-27T20:51:55.005Z,4.37
2018-09-27T20:54:30.008Z,3.70
2018-09-27T20:57:05.517Z,3.37
2018-09-27T20:59:43.426Z,3.37
2018-09-27T21:02:18.157Z,3.30
2018-09-27T21:04:53.595Z,4.10
2018-09-27T21:07:28.409Z,4.70
2018-09-27T21:10:03.254Z,3.73
2018-09-27T21:12:37.924Z,6.23
2018-09-27T21:15:13.047Z,4.63
2018-09-27T21:17:48.059Z,3.70
2018-09-27T21:20:22.878Z,3.77
2018-09-27T21:22:57.716Z,3.43
2018-09-27T21:25:32.435Z,3.33
2018-09-27T21:28:07.322Z,3.60
2018-09-27T21:30:42.292Z,4.33
2018-09-27T21:33:17.051Z,3.63
2018-09-27T21:35:51.768Z,3.53
2018-09-27T21:38:26.531Z,4.10
2018-09-27T21:41:01.416Z,3.43
2018-09-27T21:43:36.590Z,3.70
2018-09-27T21:46:12.003Z,3.87
2018-09-27T21:48:47.254Z,3.90
2018-09-27T21:51:22.904Z,3.40
2018-09-27T21:53:57.878Z,3.80
2018-09-27T21:56:32.744Z,3.93
2018-09-27T21:59:07.738Z,4.37
2018-09-27T22:01:42.517Z,6.17
2018-09-27T22:04:17.349Z,4.70
2018-09-27T22:06:52.894Z,5.23
2018-09-27T22:09:28.345Z,3.90
2018-09-27T22:12:03.265Z,4.17
2018-09-27T22:14:38.056Z,4.17
2018-09-27T22:17:12.725Z,4.37
2018-09-27T22:19:47.540Z,4.00
2018-09-27T22:22:22.573Z,4.10
2018-09-27T22:24:57.398Z,3.67
2018-09-27T22:27:32.064Z,4.00
2018-09-27T22:30:07.786Z,4.13
2018-09-27T22:32:43.113Z,4.50
2018-09-27T22:35:18.003Z,4.43
2018-09-27T22:37:53.230Z,5.27
2018-09-27T22:40:28.038Z,4.40
2018-09-27T22:43:03.362Z,4.27
2018-09-27T22:45:37.989Z,4.10
2018-09-27T22:48:12.845Z,3.93
2018-09-27T22:50:48.283Z,3.60
2018-09-27T22:53:23.006Z,4.33
2018-09-27T22:55:57.927Z,4.17
2018-09-27T22:58:32.675Z,4.10
2018-09-27T23:01:07.677Z,4.30
2018-09-27T23:03:43.167Z,4.10
2018-09-27T23:06:18.267Z,4.23
2018-09-27T23:08:52.984Z,4.43
2018-09-27T23:11:31.892Z,4.37
2018-09-27T23:14:06.637Z,4.23
2018-09-27T23:16:41.305Z,4.27
2018-09-27T23:19:16.220Z,4.40
2018-09-27T23:21:51.651Z,4.23
2018-09-27T23:24:26.396Z,4.23
2018-09-27T23:27:01.043Z,4.77
2018-09-27T23:29:35.742Z,4.40
2018-09-27T23:32:11.157Z,3.80
2018-09-27T23:34:47.063Z,4.73
2018-09-27T23:37:21.787Z,4.43
2018-09-27T23:39:56.555Z,4.90
2018-09-27T23:42:31.241Z,5.77
2018-09-27T23:45:06.483Z,5.30
2018-09-27T23:47:42.306Z,4.30
2018-09-27T23:50:17.014Z,4.43
2018-09-27T23:52:51.988Z,4.73
2018-09-27T23:55:26.846Z,4.37
2018-09-27T23:58:02.050Z,5.27
